Time;durP1;ratioP1;P1;durP2;ratioP2;P2;SDS_P1;SDS_P2;PMS_P1;PMS_P2;Temp;Humidity;BMP_temperature;BMP_pressure;BME280_temperature;BME280_humidity;BME280_pressure;Samples;Min_cycle;Max_cycle;Signal;HPM_P1;HPM_P2
2021/04/10 03:00:05;;;;;;;3.03;2.72;;;11.80;41.60;;;;;;5905129;23;94324;31
2021/04/10 03:02:32;;;;;;;3.40;2.17;;;11.80;42.20;;;;;;4825476;29;92052;-86
2021/04/10 03:04:58;;;;;;;2.47;1.90;;;11.80;42.60;;;;;;4829215;29;91979;-88
2021/04/10 03:07:24;;;;;;;3.42;2.47;;;11.70;42.50;;;;;;4829540;29;91948;-85
2021/04/10 03:09:51;;;;;;;7.00;2.72;;;11.70;43.70;;;;;;4829787;29;91311;-88
2021/04/10 03:12:19;;;;;;;4.47;2.13;;;11.50;43.40;;;;;;4829212;29;91610;-87
2021/04/10 03:14:46;;;;;;;3.92;2.05;;;11.50;44.10;;;;;;4829279;29;91951;-89
2021/04/10 03:17:22;;;;;;;3.20;1.73;;;11.40;43.50;;;;;;4829397;29;92717;-86
2021/04/10 03:19:50;;;;;;;2.88;1.85;;;11.40;43.10;;;;;;4829972;29;92236;-88
2021/04/10 03:22:16;;;;;;;2.75;2.53;;;11.50;42.80;;;;;;4829893;29;93516;-88
2021/04/10 03:24:43;;;;;;;3.65;2.60;;;11.60;42.80;;;;;;4830447;29;91952;-86
2021/04/10 03:27:10;;;;;;;3.70;2.22;;;11.70;42.20;;;;;;4829792;29;91739;-86
2021/04/10 03:29:36;;;;;;;3.05;2.63;;;11.80;42.00;;;;;;4828820;29;92482;-86
2021/04/10 03:32:03;;;;;;;4.78;2.58;;;11.90;41.90;;;;;;4828063;29;92864;-88
2021/04/10 03:34:29;;;;;;;3.90;2.42;;;11.80;42.30;;;;;;4827364;29;91553;-86
2021/04/10 03:36:55;;;;;;;3.03;2.55;;;11.80;42.80;;;;;;4828275;29;92129;-88
2021/04/10 03:39:22;;;;;;;5.65;2.28;;;11.80;42.00;;;;;;4828162;29;92413;-88
2021/04/10 03:41:48;;;;;;;3.25;2.17;;;11.80;41.90;;;;;;4811289;29;94724;-86
2021/04/10 03:44:14;;;;;;;6.20;2.10;;;11.80;42.10;;;;;;4828712;29;91938;-86
2021/04/10 03:46:40;;;;;;;3.92;2.85;;;11.90;41.80;;;;;;4828349;29;91516;-87
2021/04/10 03:49:07;;;;;;;3.15;2.20;;;11.90;42.20;;;;;;4827960;29;92570;-86
2021/04/10 03:51:36;;;;;;;3.17;2.00;;;11.80;42.20;;;;;;4828949;29;92753;-86
2021/04/10 03:54:02;;;;;;;3.47;1.98;;;11.80;42.10;;;;;;4829063;29;91972;-86
2021/04/10 03:56:28;;;;;;;5.68;2.33;;;11.80;42.60;;;;;;4829515;29;92188;-87
2021/04/10 03:58:54;;;;;;;3.38;2.13;;;11.80;42.60;;;;;;4829188;29;91949;-87
2021/04/10 04:01:20;;;;;;;4.35;2.25;;;11.80;42.30;;;;;;4827967;29;91912;-87
2021/04/10 04:03:45;;;;;;;3.78;2.60;;;11.80;42.60;;;;;;4803048;29;92514;-86
2021/04/10 04:06:11;;;;;;;2.88;2.17;;;11.80;42.70;;;;;;4828555;29;92775;-86
2021/04/10 04:08:37;;;;;;;3.30;2.00;;;11.80;42.80;;;;;;4825092;29;92646;-86
2021/04/10 04:11:03;;;;;;;2.97;2.00;;;11.70;42.70;;;;;;4828008;29;92348;-86
2021/04/10 04:13:28;;;;;;;3.28;2.10;;;11.80;42.60;;;;;;4828455;29;91879;-87
2021/04/10 04:15:54;;;;;;;3.10;2.28;;;11.80;42.90;;;;;;4814977;29;91477;-86
2021/04/10 04:18:20;;;;;;;4.38;2.03;;;11.70;43.00;;;;;;4810501;29;91858;-86
2021/04/10 04:20:46;;;;;;;5.32;2.08;;;11.80;42.80;;;;;;4828755;29;93066;-87
2021/04/10 04:23:11;;;;;;;4.35;2.75;;;11.90;42.60;;;;;;4794712;29;91448;-86
2021/04/10 04:25:37;;;;;;;6.05;2.40;;;11.90;42.60;;;;;;4827492;29;92386;-87
2021/04/10 04:28:03;;;;;;;3.97;2.70;;;11.90;42.60;;;;;;4820191;29;92860;-85
2021/04/10 04:30:29;;;;;;;4.68;2.05;;;11.90;42.70;;;;;;4805110;29;93864;-85
2021/04/10 04:32:55;;;;;;;6.38;2.53;;;11.90;43.10;;;;;;4813958;29;91834;-85
2021/04/10 04:35:21;;;;;;;3.80;2.50;;;11.80;43.50;;;;;;4817500;29;91804;-85
2021/04/10 04:37:46;;;;;;;7.30;2.70;;;11.80;43.00;;;;;;4806393;29;93419;-86
2021/04/10 04:40:13;;;;;;;2.80;2.38;;;11.90;43.30;;;;;;4803587;29;92844;-87
2021/04/10 04:42:39;;;;;;;3.88;2.50;;;11.80;43.30;;;;;;4811773;29;92106;-85
2021/04/10 04:45:06;;;;;;;3.00;1.90;;;11.80;43.20;;;;;;4818249;29;92072;-84
2021/04/10 04:47:32;;;;;;;3.70;2.47;;;11.90;43.40;;;;;;4820971;29;92002;-85
2021/04/10 04:49:58;;;;;;;2.30;2.17;;;11.90;43.30;;;;;;4813986;29;92026;-84
2021/04/10 04:52:24;;;;;;;3.65;2.47;;;11.90;43.70;;;;;;4820268;29;91729;-86
2021/04/10 04:54:50;;;;;;;3.85;2.38;;;11.90;43.20;;;;;;4821773;29;92637;-86
2021/04/10 04:57:15;;;;;;;2.80;2.30;;;11.90;43.30;;;;;;4827036;29;93260;-84
2021/04/10 04:59:41;;;;;;;4.70;2.63;;;12.00;43.60;;;;;;4818769;29;91853;-85
2021/04/10 05:02:07;;;;;;;4.55;2.40;;;12.00;43.80;;;;;;4816889;29;91959;-86
2021/04/10 05:04:33;;;;;;;2.50;2.28;;;11.90;43.90;;;;;;4825231;29;92042;-84
2021/04/10 05:06:59;;;;;;;6.07;2.75;;;11.90;44.10;;;;;;4820770;29;94282;-84
2021/04/10 05:09:24;;;;;;;3.53;2.22;;;11.90;43.80;;;;;;4826139;29;92354;-84
2021/04/10 05:11:51;;;;;;;3.95;2.58;;;12.00;43.60;;;;;;4832557;29;91323;-87
2021/04/10 05:14:16;;;;;;;3.25;2.40;;;12.00;43.90;;;;;;4819623;29;91975;-85
2021/04/10 05:16:42;;;;;;;3.72;2.72;;;12.00;43.80;;;;;;4826642;29;92090;-84
2021/04/10 05:19:08;;;;;;;3.10;2.35;;;12.00;43.90;;;;;;4821287;29;92493;-84
2021/04/10 05:21:34;;;;;;;3.67;2.15;;;12.00;43.50;;;;;;4814476;29;92335;-86
2021/04/10 05:24:00;;;;;;;3.42;2.75;;;12.10;43.40;;;;;;4831194;29;91942;-84
2021/04/10 05:26:25;;;;;;;3.30;2.92;;;12.10;43.50;;;;;;4806791;29;95546;-86
2021/04/10 05:28:51;;;;;;;6.90;2.65;;;12.10;43.60;;;;;;4815131;29;92962;-84
2021/04/10 05:31:17;;;;;;;2.60;2.22;;;12.10;44.00;;;;;;4813256;29;92084;-84
2021/04/10 05:33:46;;;;;;;4.50;2.72;;;12.10;43.70;;;;;;4816435;29;92074;-84
2021/04/10 05:36:12;;;;;;;3.58;2.08;;;12.20;44.10;;;;;;4818062;29;92052;-86
2021/04/10 05:38:37;;;;;;;3.35;2.40;;;12.20;43.60;;;;;;4816054;29;91880;-84
2021/04/10 05:41:03;;;;;;;2.55;2.35;;;12.20;43.30;;;;;;4816661;29;91976;-84
2021/04/10 05:43:29;;;;;;;3.80;2.35;;;12.30;43.60;;;;;;4814951;29;92989;-85
2021/04/10 05:45:54;;;;;;;3.10;2.80;;;12.40;43.50;;;;;;4814758;29;93184;-84
2021/04/10 05:48:20;;;;;;;5.85;2.60;;;12.40;44.80;;;;;;4813735;29;92081;-85
2021/04/10 05:50:46;;;;;;;3.70;2.50;;;12.40;45.70;;;;;;4816257;29;91892;-86
2021/04/10 05:53:12;;;;;;;4.00;2.63;;;12.50;45.60;;;;;;4817783;29;92076;-85
2021/04/10 05:55:37;;;;;;;4.65;2.85;;;12.50;46.40;;;;;;4815873;29;92402;-85
2021/04/10 05:58:03;;;;;;;3.72;2.72;;;12.50;46.70;;;;;;4815052;29;92463;-84
2021/04/10 06:00:29;;;;;;;5.85;3.03;;;12.40;47.50;;;;;;4814991;29;91322;-85
2021/04/10 06:02:56;;;;;;;3.60;3.03;;;12.30;47.90;;;;;;4814576;29;92039;-85
2021/04/10 06:05:22;;;;;;;4.65;2.83;;;12.20;48.70;;;;;;4803333;29;91938;-86
2021/04/10 06:07:48;;;;;;;3.40;2.40;;;12.00;47.20;;;;;;4806157;29;92742;-85
2021/04/10 06:10:21;;;;;;;4.85;2.92;;;12.10;47.80;;;;;;4825179;29;91983;-85
2021/04/10 06:12:47;;;;;;;4.15;3.00;;;12.20;48.20;;;;;;4817681;29;91583;-85
2021/04/10 06:15:19;;;;;;;2.92;2.60;;;12.20;48.20;;;;;;4819137;29;92691;-84
2021/04/10 06:17:45;;;;;;;4.68;3.08;;;12.30;48.20;;;;;;4810142;29;92082;-85
2021/04/10 06:20:13;;;;;;;4.43;2.88;;;12.20;50.00;;;;;;4814380;29;92123;-85
2021/04/10 06:22:39;;;;;;;2.97;2.65;;;12.20;49.00;;;;;;4812233;29;91723;-84
2021/04/10 06:25:06;;;;;;;4.90;2.83;;;12.30;49.10;;;;;;4817202;29;91996;-86
2021/04/10 06:27:34;;;;;;;3.83;2.60;;;12.30;49.00;;;;;;4807068;29;92029;-86
2021/04/10 06:30:01;;;;;;;4.70;3.10;;;12.30;50.20;;;;;;4816228;29;92033;-86
2021/04/10 06:32:26;;;;;;;3.90;2.78;;;12.20;50.20;;;;;;4814515;29;92959;-86
2021/04/10 06:34:52;;;;;;;3.60;2.80;;;12.30;50.10;;;;;;4816626;29;91714;-86
2021/04/10 06:37:18;;;;;;;4.43;2.45;;;12.50;49.20;;;;;;4817748;29;91963;-85
2021/04/10 06:39:43;;;;;;;3.28;2.97;;;12.70;48.80;;;;;;4818770;29;91890;-86
2021/04/10 06:42:09;;;;;;;5.93;3.92;;;12.90;48.70;;;;;;4820029;29;91907;-86
2021/04/10 06:44:35;;;;;;;4.75;3.03;;;13.10;48.30;;;;;;4823261;29;93901;-86
2021/04/10 06:47:05;;;;;;;5.30;2.90;;;13.30;48.50;;;;;;4822422;29;93749;-86
2021/04/10 06:49:31;;;;;;;6.15;4.38;;;14.20;53.50;;;;;;4824218;29;91189;-85
2021/04/10 06:51:58;;;;;;;4.25;2.78;;;13.80;48.60;;;;;;4819914;29;92166;-88
2021/04/10 06:54:30;;;;;;;4.45;2.80;;;14.10;48.50;;;;;;4818479;29;92435;-88
2021/04/10 06:57:00;;;;;;;5.32;2.90;;;14.40;47.80;;;;;;4819922;29;92459;-90
2021/04/10 07:00:05;;;;;;;4.22;2.72;;;14.80;47.90;;;;;;4813668;29;92072;-88
2021/04/10 07:02:32;;;;;;;3.30;2.70;;;15.60;45.80;;;;;;4813052;29;92071;-87
2021/04/10 07:04:58;;;;;;;4.57;2.78;;;17.00;44.50;;;;;;4812627;29;91942;-88
2021/04/10 07:07:25;;;;;;;3.50;3.10;;;18.70;42.00;;;;;;4810614;29;92568;-90
2021/04/10 07:09:52;;;;;;;4.57;3.05;;;20.20;39.40;;;;;;4798522;29;92096;-89
2021/04/10 07:12:18;;;;;;;5.72;3.22;;;21.30;38.20;;;;;;4814884;29;91509;-87
2021/04/10 07:14:47;;;;;;;4.93;3.20;;;22.50;36.10;;;;;;4813784;29;92459;-89
2021/04/10 07:17:13;;;;;;;3.53;2.92;;;23.40;34.60;;;;;;4810430;29;92774;-89
2021/04/10 07:19:40;;;;;;;6.53;3.53;;;23.20;32.90;;;;;;4794740;29;92004;-89
2021/04/10 07:22:12;;;;;;;3.78;3.25;;;22.20;33.90;;;;;;4791949;29;93030;-88
2021/04/10 07:24:47;;;;;;;5.03;3.42;;;23.40;33.30;;;;;;4811234;29;92817;-91
2021/04/10 07:27:20;;;;;;;5.05;2.92;;;24.60;32.60;;;;;;4805313;29;93221;-89
2021/04/10 07:29:50;;;;;;;5.13;3.30;;;25.30;31.00;;;;;;4821924;29;91965;-90
2021/04/10 07:32:37;;;;;;;3.58;3.00;;;25.30;30.50;;;;;;4820245;29;92109;-88
2021/04/10 07:35:10;;;;;;;4.10;3.70;;;25.30;29.70;;;;;;4800373;29;93780;-90
2021/04/10 07:37:46;;;;;;;5.65;2.85;;;24.80;29.60;;;;;;4793525;29;93844;-89
2021/04/10 07:40:17;;;;;;;4.80;4.30;;;24.80;30.20;;;;;;4796952;29;91380;-86
2021/04/10 07:42:44;;;;;;;3.15;2.58;;;25.00;30.40;;;;;;4813523;29;91803;-87
2021/04/10 07:45:33;;;;;;;5.90;2.95;;;25.80;30.00;;;;;;4809100;29;93432;-86
2021/04/10 07:48:17;;;;;;;5.07;3.90;;;24.30;28.80;;;;;;4809843;29;92970;-86
2021/04/10 07:50:43;;;;;;;3.20;2.50;;;24.30;28.90;;;;;;4801758;29;93226;-86
2021/04/10 07:53:29;;;;;;;2.97;2.67;;;23.10;30.50;;;;;;4804800;29;92216;-86
2021/04/10 07:55:57;;;;;;;3.60;2.70;;;22.50;30.90;;;;;;4811659;29;92727;-86
2021/04/10 07:58:40;;;;;;;5.07;2.60;;;22.60;31.40;;;;;;4803820;29;92501;-90
2021/04/10 08:01:08;;;;;;;4.15;3.80;;;23.70;31.20;;;;;;4806125;29;92096;-89
2021/04/10 08:03:34;;;;;;;3.90;3.50;;;;;;;;;;4811737;29;92021;-90
2021/04/10 08:06:06;;;;;;;5.45;3.95;;;26.80;28.40;;;;;;4812428;29;92022;-90
2021/04/10 08:08:52;;;;;;;4.88;4.18;;;28.10;27.80;;;;;;4830768;29;92093;-88
2021/04/10 08:11:33;;;;;;;4.60;4.10;;;27.10;27.20;;;;;;4807407;29;92554;-88
2021/04/10 08:14:05;;;;;;;4.00;3.70;;;27.00;27.50;;;;;;4805452;29;92785;-88
2021/04/10 08:16:31;;;;;;;2.65;2.35;;;26.40;28.40;;;;;;4805886;29;92432;-91
2021/04/10 08:19:01;;;;;;;4.30;3.90;;;25.70;28.80;;;;;;4807896;29;92475;-88
2021/04/10 08:21:29;;;;;;;4.10;3.78;;;25.40;29.40;;;;;;4807223;29;91787;-86
2021/04/10 08:23:56;;;;;;;5.28;4.00;;;25.40;29.60;;;;;;4808100;29;92848;-86
2021/04/10 08:26:23;;;;;;;4.18;3.65;;;24.80;29.50;;;;;;4813754;29;92735;-88
2021/04/10 08:28:51;;;;;;;6.47;3.90;;;24.70;29.90;;;;;;4811284;29;92489;-92
2021/04/10 08:31:17;;;;;;;4.57;4.13;;;25.00;30.00;;;;;;4805599;29;91350;-87
2021/04/10 08:33:43;;;;;;;5.78;4.30;;;25.70;30.00;;;;;;4807546;29;92478;-86
2021/04/10 08:36:10;;;;;;;6.38;4.53;;;26.90;29.50;;;;;;4821239;29;93517;-87
2021/04/10 08:38:42;;;;;;;5.47;4.50;;;27.90;29.10;;;;;;4795309;29;93072;-86
2021/04/10 08:41:09;;;;;;;3.40;2.90;;;28.00;28.10;;;;;;4803077;29;91926;-87
2021/04/10 08:43:39;;;;;;;4.18;2.63;;;27.30;28.40;;;;;;4806295;29;92004;-86
2021/04/10 08:46:08;;;;;;;4.90;2.80;;;26.50;28.70;;;;;;4799493;29;91934;-88
2021/04/10 08:48:35;;;;;;;5.70;3.08;;;25.40;29.40;;;;;;4805238;29;95159;-87
2021/04/10 08:51:04;;;;;;;3.20;2.90;;;24.70;30.20;;;;;;4812057;29;91978;-87
2021/04/10 08:53:35;;;;;;;5.23;4.30;;;24.70;30.60;;;;;;4808226;29;92268;-86
2021/04/10 08:56:11;;;;;;;5.70;4.20;;;24.50;30.20;;;;;;4809099;29;91735;-86
2021/04/10 08:58:41;;;;;;;4.28;2.60;;;24.60;30.90;;;;;;4800523;29;91896;-86
2021/04/10 09:01:23;;;;;;;4.82;2.63;;;24.70;31.30;;;;;;4794230;29;92187;-86
2021/04/10 09:03:55;;;;;;;3.10;2.80;;;24.70;31.50;;;;;;4808473;29;92569;-86
2021/04/10 09:06:33;;;;;;;3.58;2.40;;;25.00;31.00;;;;;;4811132;29;92750;-86
2021/04/10 09:09:10;;;;;;;2.95;2.65;;;25.50;31.10;;;;;;4813238;29;93078;-86
2021/04/10 09:11:37;;;;;;;3.33;2.67;;;25.90;31.00;;;;;;4798278;29;92100;-88
2021/04/10 09:14:03;;;;;;;5.38;3.70;;;26.40;30.80;;;;;;4806153;29;93072;-87
2021/04/10 09:16:31;;;;;;;4.38;2.53;;;26.20;30.60;;;;;;4807023;29;92721;-86
2021/04/10 09:19:06;;;;;;;4.75;4.00;;;25.70;30.60;;;;;;4788333;29;95435;-87
2021/04/10 09:21:39;;;;;;;4.00;2.55;;;25.20;32.20;;;;;;4806240;29;91360;-86
2021/04/10 09:24:21;;;;;;;2.78;2.25;;;24.60;33.10;;;;;;4795228;29;92175;-87
2021/04/10 09:26:58;;;;;;;3.80;3.50;;;24.10;33.70;;;;;;4795131;29;92845;-86
2021/04/10 09:29:29;;;;;;;3.67;3.38;;;23.40;34.80;;;;;;4806614;29;93013;-87
2021/04/10 09:31:58;;;;;;;;;;;23.40;34.90;;;;;;4807509;29;91912;-87
2021/04/10 09:34:42;;;;;;;4.10;3.70;;;22.10;36.20;;;;;;4798778;29;91922;-86
2021/04/10 09:37:12;;;;;;;3.10;2.10;;;22.20;36.30;;;;;;4820538;29;92575;-87
2021/04/10 09:39:56;;;;;;;6.22;3.60;;;21.60;37.90;;;;;;4804259;29;92390;-87
2021/04/10 09:45:25;;;;;;;3.63;2.97;;;20.50;40.00;;;;;;4826924;29;91266;-86
2021/04/10 09:47:57;;;;;;;3.55;3.25;;;19.30;42.20;;;;;;4808688;29;93496;-86
2021/04/10 09:50:34;;;;;;;4.57;3.72;;;18.90;42.30;;;;;;4825189;29;91474;-86
2021/04/10 09:53:03;;;;;;;3.08;2.22;;;18.90;42.80;;;;;;4827721;29;91346;-86
2021/04/10 09:55:32;;;;;;;3.85;3.60;;;19.10;42.80;;;;;;4810836;29;93059;-86
2021/04/10 09:58:00;;;;;;;3.33;2.53;;;19.20;43.00;;;;;;4808196;29;92554;-86
2021/04/10 10:00:30;;;;;;;4.43;3.78;;;19.20;43.80;;;;;;4811186;29;95630;-86
2021/04/10 10:02:56;;;;;;;4.55;3.20;;;19.20;44.60;;;;;;4811485;29;92155;-86
2021/04/10 10:05:24;;;;;;;3.67;3.38;;;19.40;43.00;;;;;;4793828;29;92028;-88
2021/04/10 10:07:51;;;;;;;5.00;3.55;;;19.60;42.70;;;;;;4808341;29;92256;-88
2021/04/10 10:10:17;;;;;;;3.45;3.13;;;19.50;43.00;;;;;;4793327;29;92797;-86
2021/04/10 10:12:42;;;;;;;2.17;1.95;;;19.90;42.90;;;;;;4813835;29;91349;-87
2021/04/10 10:15:21;;;;;;;3.80;3.45;;;20.70;40.40;;;;;;4811646;29;92542;-90
2021/04/10 10:17:47;;;;;;;3.67;3.05;;;20.70;41.00;;;;;;4807999;29;92724;-88
2021/04/10 10:20:14;;;;;;;4.13;3.70;;;21.20;40.40;;;;;;4809579;29;93226;-90
2021/04/10 10:22:41;;;;;;;4.25;3.90;;;21.30;39.40;;;;;;4810938;29;92109;-91
2021/04/10 10:25:15;;;;;;;6.50;3.33;;;21.50;38.70;;;;;;4798691;29;92101;-92
2021/04/10 10:27:46;;;;;;;8.00;4.55;;;21.80;38.50;;;;;;4811934;29;92419;-89
2021/04/10 10:30:17;;;;;;;5.07;3.58;;;22.00;38.40;;;;;;4812259;29;92620;-91
2021/04/10 10:32:49;;;;;;;7.45;3.70;;;22.00;38.30;;;;;;4797948;29;92078;-92
2021/04/10 10:35:19;;;;;;;3.65;2.30;;;22.10;38.90;;;;;;4803646;29;92013;-91
2021/04/10 10:37:49;;;;;;;4.75;4.15;;;22.00;36.90;;;;;;4818750;29;92084;-90
2021/04/10 10:40:22;;;;;;;4.97;4.10;;;21.90;37.30;;;;;;4799871;29;93912;-89
2021/04/10 10:43:04;;;;;;;6.63;2.92;;;21.30;38.40;;;;;;4808750;29;91808;-89
2021/04/10 10:45:44;;;;;;;4.55;2.40;;;21.20;39.40;;;;;;4803345;29;93025;-88
2021/04/10 10:48:29;;;;;;;4.30;3.80;;;21.00;39.80;;;;;;4793845;29;94292;-88
2021/04/10 10:51:00;;;;;;;5.38;3.47;;;20.90;41.60;;;;;;4810581;29;92748;-87
2021/04/10 10:53:30;;;;;;;3.92;3.50;;;20.90;40.20;;;;;;4799580;29;91930;-88
2021/04/10 10:56:02;;;;;;;4.60;3.55;;;21.30;39.30;;;;;;4780245;29;92069;-88
2021/04/10 10:58:36;;;;;;;3.05;2.28;;;21.20;39.50;;;;;;4821325;29;92286;-88
2021/04/10 11:01:10;;;;;;;4.63;2.60;;;22.00;37.40;;;;;;4806863;29;92459;-89
2021/04/10 11:03:37;;;;;;;3.72;3.42;;;22.10;38.00;;;;;;4791048;29;91390;-89
2021/04/10 11:06:04;;;;;;;27.05;9.18;;;22.60;36.50;;;;;;4811026;29;92302;-89
2021/04/10 11:08:31;;;;;;;13.63;6.63;;;;;;;;;;4788900;29;95297;-88
2021/04/10 11:10:57;;;;;;;16.17;7.43;;;23.10;35.90;;;;;;4810226;29;93345;-88
2021/04/10 11:13:24;;;;;;;8.13;5.78;;;25.20;33.50;;;;;;4807641;29;92420;-89
2021/04/10 11:15:51;;;;;;;5.97;3.30;;;25.30;34.10;;;;;;4804934;29;92095;-90
2021/04/10 11:18:31;;;;;;;6.35;3.80;;;25.60;33.50;;;;;;4807957;29;92706;-88
2021/04/10 11:21:21;;;;;;;13.25;6.10;;;25.30;33.00;;;;;;4811089;29;92341;-90
2021/04/10 11:23:59;;;;;;;7.50;5.25;;;24.70;32.60;;;;;;4813856;29;92151;-88
2021/04/10 11:26:51;;;;;;;9.00;5.55;;;24.10;34.00;;;;;;4802368;29;92160;-89
2021/04/10 11:29:21;;;;;;;6.38;3.20;;;23.70;34.40;;;;;;4812229;29;93120;-88
2021/04/10 11:32:23;;;;;;;3.80;3.10;;;23.70;35.00;;;;;;4809565;29;92158;-88
2021/04/10 11:34:49;;;;;;;5.10;3.08;;;24.10;34.60;;;;;;4815992;29;91980;-89
2021/04/10 11:37:21;;;;;;;14.25;4.18;;;24.30;34.50;;;;;;4795127;29;93064;-90
2021/04/10 11:39:53;;;;;;;6.05;3.10;;;24.60;33.90;;;;;;4810259;29;93276;-88
2021/04/10 11:42:43;;;;;;;6.78;3.90;;;25.30;34.30;;;;;;4811083;29;92287;-89
2021/04/10 11:45:21;;;;;;;8.05;4.80;;;26.90;32.60;;;;;;4814673;29;92083;-89
2021/04/10 11:47:47;;;;;;;5.40;3.35;;;27.40;31.70;;;;;;4792742;29;92505;-89
2021/04/10 11:50:17;;;;;;;5.95;4.60;;;27.20;31.60;;;;;;4817398;29;93512;-90
2021/04/10 11:52:47;;;;;;;4.32;3.47;;;26.90;32.00;;;;;;4788467;29;96379;-89
2021/04/10 11:55:17;;;;;;;6.00;3.15;;;26.50;32.30;;;;;;4810744;29;91343;-90
2021/04/10 11:57:44;;;;;;;4.78;4.38;;;26.20;32.30;;;;;;4801360;29;92120;-90
2021/04/10 12:00:27;;;;;;;4.88;4.18;;;26.30;32.00;;;;;;4809270;29;92798;-89
2021/04/10 12:03:03;;;;;;;6.80;4.28;;;26.60;31.70;;;;;;4800796;29;93069;-89
2021/04/10 12:05:36;;;;;;;5.20;4.25;;;26.50;32.10;;;;;;4810622;29;91884;-89
2021/04/10 12:08:16;;;;;;;6.43;4.25;;;27.00;32.50;;;;;;4809820;29;92128;-90
2021/04/10 12:10:48;;;;;;;9.10;4.82;;;27.50;32.20;;;;;;4789382;29;94264;-89
2021/04/10 12:13:16;;;;;;;5.00;4.57;;;;;;;;;;4807188;29;92253;-89
2021/04/10 12:15:42;;;;;;;4.47;3.88;;;;;;;;;;4792987;29;92460;-89
2021/04/10 12:18:09;;;;;;;4.63;4.18;;;28.20;30.80;;;;;;4811768;29;92456;-90
2021/04/10 12:20:38;;;;;;;5.35;4.88;;;28.20;31.40;;;;;;4780759;29;93389;-89
2021/04/10 12:23:05;;;;;;;5.35;4.55;;;28.40;31.30;;;;;;4824088;29;91859;-90
2021/04/10 12:25:30;;;;;;;4.88;4.47;;;28.40;31.80;;;;;;4799638;29;92089;-88
2021/04/10 12:27:56;;;;;;;6.88;4.70;;;;;;;;;;4813043;29;92996;-89
2021/04/10 12:30:22;;;;;;;4.07;3.17;;;29.70;30.00;;;;;;4804268;29;93328;-89
2021/04/10 12:32:48;;;;;;;4.93;4.45;;;29.60;29.90;;;;;;4809452;29;93162;-89
2021/04/10 12:35:14;;;;;;;4.72;4.32;;;29.30;30.30;;;;;;4810212;29;91936;-90
2021/04/10 12:37:40;;;;;;;5.75;4.70;;;29.20;30.00;;;;;;4809057;29;93612;-89
2021/04/10 12:40:07;;;;;;;4.90;4.43;;;29.20;29.60;;;;;;4812459;29;91887;-90
2021/04/10 12:42:33;;;;;;;4.80;4.40;;;29.30;30.00;;;;;;4810126;29;92541;-89
2021/04/10 12:45:00;;;;;;;4.57;4.18;;;29.70;29.70;;;;;;4808198;29;91191;-90
2021/04/10 12:47:26;;;;;;;4.97;4.50;;;29.80;29.50;;;;;;4809641;29;92006;-90
2021/04/10 12:49:51;;;;;;;4.63;4.30;;;29.60;29.50;;;;;;4792545;29;94209;-90
2021/04/10 12:52:17;;;;;;;6.18;4.90;;;29.40;29.60;;;;;;4793472;29;94586;-89
2021/04/10 12:54:44;;;;;;;4.80;4.40;;;28.90;30.10;;;;;;4814913;29;92094;-88
2021/04/10 12:57:11;;;;;;;4.20;3.80;;;28.60;31.10;;;;;;4807546;29;92023;-87
2021/04/10 12:59:38;;;;;;;5.03;4.63;;;28.10;31.20;;;;;;4808749;29;92733;-89
2021/04/10 13:02:04;;;;;;;5.35;4.85;;;27.90;31.40;;;;;;4790645;29;95104;-89
2021/04/10 13:04:30;;;;;;;5.50;4.88;;;28.60;31.50;;;;;;4808221;29;91960;-90
2021/04/10 13:07:00;;;;;;;5.50;4.25;;;31.10;30.00;;;;;;4813763;29;91941;-90
2021/04/10 13:09:26;;;;;;;5.55;4.07;;;;;;;;;;4812580;29;91499;-90
2021/04/10 13:11:52;;;;;;;5.03;4.53;;;;;;;;;;4814438;29;92042;-91
2021/04/10 13:14:20;;;;;;;4.43;4.13;;;33.30;28.40;;;;;;4795351;29;92061;-88
2021/04/10 13:16:53;;;;;;;5.40;4.45;;;33.80;28.20;;;;;;4820771;29;93183;-89
2021/04/10 13:19:21;;;;;;;5.25;4.82;;;34.50;27.50;;;;;;4814551;29;94318;-89
2021/04/10 13:21:47;;;;;;;4.63;4.22;;;34.60;27.70;;;;;;4808871;29;93293;-88
2021/04/10 13:24:14;;;;;;;4.93;4.43;;;34.80;26.70;;;;;;4810911;29;91980;-88
2021/04/10 13:26:40;;;;;;;5.22;4.75;;;34.80;26.40;;;;;;4805454;29;91879;-89
2021/04/10 13:29:06;;;;;;;6.68;5.32;;;35.30;26.50;;;;;;4790416;29;94187;-87
2021/04/10 13:31:32;;;;;;;5.47;4.80;;;;;;;;;;4800800;29;92019;-87
2021/04/10 13:33:59;;;;;;;5.30;4.90;;;34.20;26.70;;;;;;4810922;29;91087;-88
2021/04/10 13:36:24;;;;;;;5.93;5.03;;;33.90;27.30;;;;;;4799502;29;92193;-87
2021/04/10 13:38:51;;;;;;;4.97;4.57;;;34.40;27.00;;;;;;4814593;29;91877;-87
2021/04/10 13:41:18;;;;;;;5.93;4.88;;;34.40;26.80;;;;;;4814149;29;93129;-86
2021/04/10 13:43:44;;;;;;;5.78;5.22;;;34.40;27.00;;;;;;4812392;29;91977;-87
2021/04/10 13:46:10;;;;;;;4.88;4.47;;;34.10;27.00;;;;;;4791760;29;92218;-89
2021/04/10 13:48:36;;;;;;;5.78;4.85;;;34.00;27.50;;;;;;4811093;29;92397;-89
2021/04/10 13:51:02;;;;;;;3.60;3.10;;;33.80;27.80;;;;;;4811044;29;92390;-89
2021/04/10 13:53:30;;;;;;;5.88;4.72;;;33.60;27.80;;;;;;4813446;29;91842;-88
2021/04/10 13:55:56;;;;;;;5.65;5.15;;;33.50;28.00;;;;;;4813969;29;91980;-88
2021/04/10 13:58:21;;;;;;;5.97;4.70;;;33.50;27.80;;;;;;4811452;29;91586;-88
2021/04/10 14:00:47;;;;;;;4.97;4.65;;;33.40;27.20;;;;;;4813185;29;93856;-88
2021/04/10 14:03:13;;;;;;;5.43;4.20;;;33.20;27.10;;;;;;4814143;29;92076;-89
2021/04/10 14:05:38;;;;;;;4.50;4.20;;;33.30;26.80;;;;;;4822241;29;92837;-89
2021/04/10 14:08:07;;;;;;;5.50;5.00;;;33.50;26.10;;;;;;4807068;29;93633;-89
2021/04/10 14:10:34;;;;;;;5.28;4.63;;;32.50;27.40;;;;;;4811146;29;93361;-88
2021/04/10 14:13:00;;;;;;;6.30;4.90;;;31.90;28.00;;;;;;4800973;29;92324;-90
2021/04/10 14:15:32;;;;;;;4.60;4.20;;;31.50;25.00;;;;;;4791902;29;91905;-89
2021/04/10 14:17:58;;;;;;;4.88;4.57;;;31.40;25.80;;;;;;4811869;29;93878;-89
2021/04/10 14:20:29;;;;;;;6.05;5.22;;;31.00;26.60;;;;;;4824353;29;92578;-88
2021/04/10 14:22:56;;;;;;;5.15;4.65;;;30.20;28.40;;;;;;4802564;29;91324;-88
2021/04/10 14:25:24;;;;;;;5.55;4.90;;;30.20;28.80;;;;;;4812370;29;92103;-89
2021/04/10 14:27:51;;;;;;;5.75;5.13;;;30.20;29.30;;;;;;4796175;29;96382;-90
2021/04/10 14:30:26;;;;;;;5.20;4.80;;;30.10;29.60;;;;;;4807371;29;92788;-90
2021/04/10 14:32:53;;;;;;;5.88;5.28;;;30.00;29.00;;;;;;4813911;29;92049;-89
2021/04/10 14:35:31;;;;;;;6.00;4.85;;;30.00;29.50;;;;;;4816374;29;92686;-89
2021/04/10 14:37:58;;;;;;;7.35;5.35;;;29.80;29.10;;;;;;4797457;29;92685;-90
2021/04/10 14:40:25;;;;;;;5.10;4.70;;;29.50;29.20;;;;;;4795416;29;92645;-89
2021/04/10 14:42:53;;;;;;;7.82;5.53;;;29.00;29.40;;;;;;4807463;29;91939;-89
2021/04/10 14:45:20;;;;;;;4.70;4.40;;;28.70;29.70;;;;;;4813196;29;91620;-89
2021/04/10 14:47:46;;;;;;;6.90;4.40;;;28.30;27.60;;;;;;4814231;29;92843;-90
2021/04/10 14:50:13;;;;;;;4.80;4.40;;;26.90;28.50;;;;;;4812233;29;93317;-89
2021/04/10 14:52:40;;;;;;;4.20;3.90;;;25.60;26.60;;;;;;4811350;29;91954;-89
2021/04/10 14:55:13;;;;;;;4.70;4.30;;;25.40;26.90;;;;;;4811238;29;92833;-90
2021/04/10 14:57:39;;;;;;;6.50;4.30;;;25.10;29.30;;;;;;4811491;29;92020;-90
2021/04/10 15:00:11;;;;;;;5.70;4.57;;;25.40;30.00;;;;;;4799425;29;92713;-89
2021/04/10 15:02:37;;;;;;;5.68;5.10;;;;;;;;;;4804595;29;92237;-90
2021/04/10 15:05:08;;;;;;;4.50;4.10;;;25.50;30.80;;;;;;4798534;29;91918;-90
2021/04/10 15:07:39;;;;;;;4.85;4.13;;;25.40;29.00;;;;;;4817080;29;93907;-88
2021/04/10 15:10:07;;;;;;;3.40;3.20;;;24.70;28.20;;;;;;4812447;29;92350;-89
2021/04/10 15:12:39;;;;;;;5.00;4.40;;;24.10;28.90;;;;;;4817405;29;90678;-90
2021/04/10 15:15:07;;;;;;;3.88;3.60;;;24.00;29.90;;;;;;4784801;29;92094;-90
2021/04/10 15:17:33;;;;;;;4.30;4.00;;;;;;;;;;4808803;29;93350;-89
2021/04/10 15:19:58;;;;;;;3.90;3.60;;;23.90;28.40;;;;;;4813344;29;92952;-89
2021/04/10 15:22:24;;;;;;;3.80;3.50;;;23.60;29.50;;;;;;4797954;29;92012;-90
2021/04/10 15:24:50;;;;;;;3.92;3.63;;;23.30;29.10;;;;;;4810922;29;91669;-89
2021/04/10 15:27:16;;;;;;;4.53;4.22;;;;;;;;;;4810534;29;93619;-88
2021/04/10 15:29:48;;;;;;;3.40;3.10;;;22.90;33.50;;;;;;4811187;29;91960;-90
2021/04/10 15:32:14;;;;;;;4.05;3.75;;;;;;;;;;4810225;29;91876;-89
2021/04/10 15:34:47;;;;;;;3.10;2.90;;;22.30;30.20;;;;;;4810631;29;91894;-88
2021/04/10 15:37:13;;;;;;;3.40;3.20;;;21.40;29.50;;;;;;4808389;29;92142;-86
2021/04/10 15:39:43;;;;;;;3.17;2.97;;;21.30;29.90;;;;;;4809931;29;91867;-87
2021/04/10 15:42:09;;;;;;;3.63;2.50;;;21.10;30.50;;;;;;4810554;29;91983;-89
2021/04/10 15:44:34;;;;;;;3.28;2.97;;;20.50;31.40;;;;;;4793864;29;93204;-88
2021/04/10 15:47:00;;;;;;;3.47;3.10;;;20.00;31.30;;;;;;4795643;29;94045;-88
2021/04/10 15:49:26;;;;;;;3.08;2.60;;;19.70;31.70;;;;;;4819365;29;92493;-89
2021/04/10 15:51:51;;;;;;;3.25;2.67;;;19.30;31.70;;;;;;4798956;29;92031;-90
2021/04/10 15:54:17;;;;;;;3.17;2.95;;;19.20;32.90;;;;;;4811281;29;92300;-88
2021/04/10 15:56:43;;;;;;;2.92;2.72;;;19.20;32.40;;;;;;4812425;29;92015;-89
2021/04/10 15:59:09;;;;;;;3.38;3.00;;;;;;;;;;4813060;29;93400;-89
2021/04/10 16:01:36;;;;;;;3.42;3.22;;;19.20;31.80;;;;;;4795185;29;91263;-89